createdAt,value
2023-06-01T00:02:21.375Z,96719.59
2023-06-01T00:04:51.316Z,96724.00
2023-06-01T00:07:17.811Z,96730.13
2023-06-01T00:09:44.380Z,96721.94
2023-06-01T00:12:11.100Z,96719.53
2023-06-01T00:14:37.959Z,96717.66
2023-06-01T00:17:06.764Z,96720.00
2023-06-01T00:19:33.680Z,96716.41
2023-06-01T00:22:00.394Z,96728.81
2023-06-01T00:24:27.068Z,96729.13
2023-06-01T00:26:53.560Z,96723.31
2023-06-01T00:29:19.993Z,96718.75
2023-06-01T00:31:46.608Z,96719.53
2023-06-01T00:34:13.218Z,96714.94
2023-06-01T00:36:40.208Z,96714.66
2023-06-01T00:39:06.938Z,96719.81
2023-06-01T00:41:34.148Z,96716.34
2023-06-01T00:44:01.238Z,96712.56
2023-06-01T00:46:31.076Z,96713.19
2023-06-01T00:48:58.743Z,96713.53
2023-06-01T00:51:25.754Z,96709.88
2023-06-01T00:53:52.424Z,96706.25
2023-06-01T00:56:19.327Z,96709.84
2023-06-01T00:58:46.074Z,96710.72
2023-06-01T01:01:23.708Z,96707.13
2023-06-01T01:03:58.202Z,96707.47
2023-06-01T01:06:46.997Z,96710.31
2023-06-01T01:10:04.968Z,96702.00
2023-06-01T01:12:57.049Z,96707.06
2023-06-01T01:15:51.306Z,96709.41
2023-06-01T01:18:26.021Z,96712.06
2023-06-01T01:20:59.501Z,96699.34
2023-06-01T01:23:51.206Z,96701.22
2023-06-01T01:26:46.101Z,96707.84
2023-06-01T01:29:15.041Z,96698.25
2023-06-01T01:31:42.255Z,96708.34
2023-06-01T01:34:10.762Z,96706.28
2023-06-01T01:36:37.740Z,96715.72
2023-06-01T01:39:04.749Z,96709.41
2023-06-01T01:41:31.208Z,96719.81
2023-06-01T01:44:00.165Z,96713.66
2023-06-01T01:46:29.782Z,96715.69
2023-06-01T01:48:56.442Z,96722.28
2023-06-01T01:51:38.383Z,96717.09
2023-06-01T01:54:07.730Z,96716.16
2023-06-01T01:56:36.906Z,96712.56
2023-06-01T01:59:04.417Z,96703.91
2023-06-01T02:01:34.948Z,96707.50
2023-06-01T02:04:04.721Z,96710.50
2023-06-01T02:06:31.793Z,96702.78
2023-06-01T02:08:58.307Z,96702.50
2023-06-01T02:11:24.752Z,96700.91
2023-06-01T02:13:51.304Z,96709.38
2023-06-01T02:16:17.863Z,96711.59
2023-06-01T02:18:46.819Z,96698.22
2023-06-01T02:21:14.553Z,96699.31
2023-06-01T02:23:41.673Z,96702.59
2023-06-01T02:26:08.744Z,96699.31
2023-06-01T02:28:37.632Z,96690.63
2023-06-01T02:31:04.032Z,96690.97
2023-06-01T02:33:30.996Z,96697.38
2023-06-01T02:35:57.472Z,96690.31
2023-06-01T02:38:23.895Z,96681.19
2023-06-01T02:40:50.368Z,96686.53
2023-06-01T02:43:16.772Z,96680.97
2023-06-01T02:45:43.161Z,96675.47
2023-06-01T02:48:09.553Z,96671.69
2023-06-01T02:50:36.375Z,96677.94
2023-06-01T02:53:03.982Z,96673.50
2023-06-01T02:55:30.363Z,96667.63
2023-06-01T02:57:56.802Z,96667.31
2023-06-01T03:00:23.478Z,96664.00
2023-06-01T03:02:50.481Z,96661.09
2023-06-01T03:05:17.953Z,96657.50
2023-06-01T03:07:45.350Z,96657.19
2023-06-01T03:10:11.882Z,96658.31
2023-06-01T03:12:38.348Z,96657.50
2023-06-01T03:15:05.963Z,96664.25
2023-06-01T03:17:34.121Z,96652.22
2023-06-01T03:20:01.354Z,96653.19
2023-06-01T03:22:27.749Z,96655.69
2023-06-01T03:24:55.684Z,96645.63
2023-06-01T03:27:22.165Z,96652.22
2023-06-01T03:29:48.553Z,96651.59
2023-06-01T03:32:15.362Z,96644.53
2023-06-01T03:34:42.434Z,96644.00
2023-06-01T03:37:09.056Z,96642.91
2023-06-01T03:39:36.742Z,96643.97
2023-06-01T03:42:03.563Z,96642.44
2023-06-01T03:44:30.010Z,96649.34
2023-06-01T03:46:56.520Z,96651.34
2023-06-01T03:49:23.030Z,96656.88
2023-06-01T03:51:49.591Z,96651.69
2023-06-01T03:54:15.991Z,96651.19
2023-06-01T03:56:42.460Z,96655.13
2023-06-01T03:59:11.115Z,96657.31
2023-06-01T04:01:41.240Z,96653.53
2023-06-01T04:04:09.533Z,96658.28
2023-06-01T04:06:37.322Z,96653.41
2023-06-01T04:09:07.986Z,96663.66
2023-06-01T04:11:34.586Z,96667.44
2023-06-01T04:14:00.983Z,96656.41
2023-06-01T04:16:27.590Z,96664.91
2023-06-01T04:18:54.253Z,96660.00
2023-06-01T04:21:24.078Z,96659.72
2023-06-01T04:23:51.657Z,96662.22
2023-06-01T04:26:19.182Z,96665.22
2023-06-01T04:28:46.906Z,96658.81
2023-06-01T04:31:17.909Z,96660.84
2023-06-01T04:33:45.530Z,96663.81
2023-06-01T04:36:20.597Z,96665.22
2023-06-01T04:38:51.985Z,96668.50
2023-06-01T04:41:18.590Z,96668.03
2023-06-01T04:43:45.950Z,96672.66
2023-06-01T04:46:12.990Z,96663.00
2023-06-01T04:48:39.445Z,96665.56
2023-06-01T04:51:05.940Z,96660.84
2023-06-01T04:53:32.532Z,96653.00
2023-06-01T04:55:59.014Z,96657.84
2023-06-01T04:58:25.607Z,96662.56
2023-06-01T05:00:52.283Z,96661.78
2023-06-01T05:03:18.747Z,96659.22
2023-06-01T05:05:45.238Z,96666.81
2023-06-01T05:08:12.086Z,96666.69
2023-06-01T05:10:39.063Z,96657.94
2023-06-01T05:13:05.786Z,96653.72
2023-06-01T05:15:32.193Z,96657.81
2023-06-01T05:17:58.728Z,96656.25
2023-06-01T05:20:25.286Z,96655.88
2023-06-01T05:22:51.689Z,96657.50
2023-06-01T05:25:18.352Z,96656.28
2023-06-01T05:27:44.751Z,96655.00
2023-06-01T05:30:11.834Z,96659.09
2023-06-01T05:32:38.207Z,96660.22
2023-06-01T05:35:05.578Z,96662.41
2023-06-01T05:37:31.978Z,96656.94
2023-06-01T05:39:58.368Z,96653.19
2023-06-01T05:42:24.755Z,96659.88
2023-06-01T05:44:51.175Z,96656.44
2023-06-01T05:47:17.578Z,96660.56
2023-06-01T05:49:44.033Z,96655.81
2023-06-01T05:52:10.981Z,96666.97
2023-06-01T05:54:37.621Z,96659.16
2023-06-01T05:57:04.348Z,96661.84
2023-06-01T05:59:30.744Z,96665.16
2023-06-01T06:01:57.338Z,96664.53
2023-06-01T06:04:23.857Z,96676.47
2023-06-01T06:06:50.393Z,96671.63
2023-06-01T06:09:17.044Z,96664.88
2023-06-01T06:11:44.320Z,96669.78
2023-06-01T06:14:12.600Z,96669.97
2023-06-01T06:16:40.787Z,96669.16
2023-06-01T06:19:07.200Z,96670.31
2023-06-01T06:21:34.531Z,96665.44
2023-06-01T06:24:01.005Z,96669.31
2023-06-01T06:26:30.924Z,96667.22
2023-06-01T06:28:57.357Z,96658.78
2023-06-01T06:31:24.699Z,96655.69
2023-06-01T06:33:52.260Z,96662.50
2023-06-01T06:36:19.089Z,96650.38
2023-06-01T06:38:45.886Z,96654.09
2023-06-01T06:41:12.362Z,96652.97
2023-06-01T06:43:38.725Z,96648.50
2023-06-01T06:46:05.393Z,96655.34
2023-06-01T06:48:31.867Z,96646.03
2023-06-01T06:50:58.333Z,96650.28
2023-06-01T06:53:24.762Z,96640.88
2023-06-01T06:55:51.176Z,96645.34
2023-06-01T06:58:17.644Z,96640.19
2023-06-01T07:00:44.351Z,96640.66
2023-06-01T07:03:11.306Z,96643.13
2023-06-01T07:05:37.898Z,96638.66
2023-06-01T07:08:04.365Z,96643.47
2023-06-01T07:10:30.784Z,96643.03
2023-06-01T07:12:57.186Z,96632.03
2023-06-01T07:15:23.662Z,96639.88
2023-06-01T07:17:50.128Z,96636.53
2023-06-01T07:20:16.812Z,96634.41
2023-06-01T07:22:43.322Z,96633.72
2023-06-01T07:25:10.849Z,96631.03
2023-06-01T07:27:37.327Z,96627.22
2023-06-01T07:30:04.932Z,96624.19
2023-06-01T07:32:32.623Z,96628.44
2023-06-01T07:35:00.186Z,96628.00
2023-06-01T07:37:28.076Z,96633.03
2023-06-01T07:39:55.620Z,96628.56
2023-06-01T07:42:22.157Z,96629.25
2023-06-01T07:44:48.676Z,96629.56
2023-06-01T07:47:15.233Z,96627.09
2023-06-01T07:49:41.666Z,96627.66
2023-06-01T07:52:08.380Z,96619.59
2023-06-01T07:54:37.162Z,96618.69
2023-06-01T07:57:07.115Z,96626.44
2023-06-01T07:59:33.675Z,96611.84
2023-06-01T08:02:01.546Z,96618.03
2023-06-01T08:04:34.542Z,96614.22
2023-06-01T08:07:04.232Z,96617.34
2023-06-01T08:09:31.464Z,96610.97
2023-06-01T08:11:57.965Z,96619.34
2023-06-01T08:14:24.797Z,96615.53
2023-06-01T08:16:52.506Z,96611.72
2023-06-01T08:19:19.172Z,96612.63
2023-06-01T08:21:46.794Z,96607.94
2023-06-01T08:24:14.257Z,96606.47
2023-06-01T08:26:40.755Z,96603.09
2023-06-01T08:29:07.178Z,96603.19
2023-06-01T08:31:33.717Z,96599.72
2023-06-01T08:34:00.242Z,96598.00
2023-06-01T08:36:26.818Z,96606.97
2023-06-01T08:38:56.789Z,96607.97
2023-06-01T08:41:32.289Z,96605.28
2023-06-01T08:44:04.755Z,96597.03
2023-06-01T08:46:33.716Z,96611.97
2023-06-01T08:49:01.360Z,96598.97
2023-06-01T08:51:28.273Z,96594.25
2023-06-01T08:53:57.493Z,96593.66
2023-06-01T08:56:25.030Z,96597.00
2023-06-01T08:58:52.637Z,96591.59
2023-06-01T09:01:22.343Z,96583.72
2023-06-01T09:03:50.098Z,96593.38
2023-06-01T09:06:17.161Z,96601.63
2023-06-01T09:08:43.724Z,96599.72
2023-06-01T09:11:10.241Z,96596.91
2023-06-01T09:13:38.832Z,96594.72
2023-06-01T09:16:07.153Z,96594.63
2023-06-01T09:18:34.524Z,96595.09
2023-06-01T09:21:15.352Z,96589.25
2023-06-01T09:23:43.761Z,96591.25
2023-06-01T09:26:14.774Z,96584.13
2023-06-01T09:28:56.735Z,96576.25
2023-06-01T09:31:37.828Z,96586.50
2023-06-01T09:34:05.632Z,96581.09
2023-06-01T09:36:32.866Z,96575.72
2023-06-01T09:39:09.019Z,96574.13
2023-06-01T09:42:05.411Z,96568.41
2023-06-01T09:44:34.086Z,96565.13
2023-06-01T09:47:12.955Z,96563.47
2023-06-01T09:49:45.437Z,96566.94
2023-06-01T09:52:18.044Z,96559.44
2023-06-01T09:54:47.611Z,96557.63
2023-06-01T09:57:21.741Z,96557.09
2023-06-01T09:59:48.758Z,96547.63
2023-06-01T10:02:23.852Z,96547.28
2023-06-01T10:04:59.878Z,96548.50
2023-06-01T10:07:32.730Z,96549.53
2023-06-01T10:10:03.771Z,96544.78
2023-06-01T10:12:34.332Z,96547.72
2023-06-01T10:15:05.527Z,96547.03
2023-06-01T10:17:39.899Z,96545.63
2023-06-01T10:20:07.457Z,96538.84
2023-06-01T10:22:35.565Z,96539.44
2023-06-01T10:25:03.538Z,96546.31
2023-06-01T10:27:49.032Z,96539.69
2023-06-01T10:30:15.632Z,96533.53
2023-06-01T10:32:46.646Z,96528.66
2023-06-01T10:35:33.107Z,96537.06
2023-06-01T10:38:14.039Z,96531.44
2023-06-01T10:40:42.387Z,96530.44
2023-06-01T10:43:49.805Z,96531.94
2023-06-01T10:46:38.159Z,96523.59
2023-06-01T10:49:05.648Z,96527.31
2023-06-01T10:51:32.385Z,96528.59
2023-06-01T10:54:26.949Z,96527.19
2023-06-01T10:57:19.906Z,96518.41
2023-06-01T11:00:09.216Z,96518.41
2023-06-01T11:02:35.959Z,96515.75
2023-06-01T11:05:39.474Z,96507.53
2023-06-01T11:08:09.607Z,96504.22
2023-06-01T11:10:54.259Z,96501.34
2023-06-01T11:13:31.162Z,96499.50
2023-06-01T11:16:19.909Z,96495.41
2023-06-01T11:18:59.360Z,96490.53
2023-06-01T11:21:28.952Z,96489.84
2023-06-01T11:23:57.914Z,96486.97
2023-06-01T11:26:31.605Z,96491.03
2023-06-01T11:29:13.219Z,96483.00
2023-06-01T11:31:48.103Z,96490.94
2023-06-01T11:34:21.768Z,96480.25
2023-06-01T11:36:50.375Z,96492.44
2023-06-01T11:39:20.991Z,96484.16
2023-06-01T11:42:07.617Z,96484.38
2023-06-01T11:44:35.731Z,96480.69
2023-06-01T11:47:02.941Z,96467.56
2023-06-01T11:49:29.665Z,96476.53
2023-06-01T11:51:59.644Z,96471.97
2023-06-01T11:54:29.863Z,96469.19
2023-06-01T11:56:58.958Z,96463.66
2023-06-01T11:59:25.804Z,96462.16
2023-06-01T12:01:53.596Z,96464.06
2023-06-01T12:04:23.316Z,96457.91
2023-06-01T12:06:50.239Z,96463.75
2023-06-01T12:09:17.897Z,96459.16
2023-06-01T12:11:45.466Z,96453.75
2023-06-01T12:14:14.822Z,96454.25
2023-06-01T12:16:59.623Z,96448.91
2023-06-01T12:19:27.880Z,96449.38
2023-06-01T12:21:57.007Z,96450.56
2023-06-01T12:24:30.454Z,96445.53
2023-06-01T12:26:59.180Z,96438.13
2023-06-01T12:29:39.177Z,96437.19
2023-06-01T12:32:06.572Z,96430.28
2023-06-01T12:34:33.023Z,96437.31
2023-06-01T12:36:59.489Z,96429.53
2023-06-01T12:39:52.008Z,96435.56
2023-06-01T12:42:18.648Z,96441.69
2023-06-01T12:44:45.456Z,96428.13
2023-06-01T12:47:11.872Z,96427.03
2023-06-01T12:49:39.086Z,96421.63
2023-06-01T12:52:05.864Z,96425.47
2023-06-01T12:54:32.253Z,96429.06
2023-06-01T12:56:58.720Z,96422.19
2023-06-01T12:59:25.148Z,96421.66
2023-06-01T13:01:51.609Z,96410.44
2023-06-01T13:04:18.300Z,96409.66
2023-06-01T13:06:45.668Z,96400.06
2023-06-01T13:09:12.289Z,96402.78
2023-06-01T13:11:38.830Z,96400.06
2023-06-01T13:14:05.240Z,96402.03
2023-06-01T13:16:31.711Z,96391.22
2023-06-01T13:18:58.468Z,96390.47
2023-06-01T13:21:25.112Z,96390.09
2023-06-01T13:23:51.557Z,96391.69
2023-06-01T13:26:18.104Z,96379.63
2023-06-01T13:28:44.546Z,96382.69
2023-06-01T13:31:11.013Z,96382.34
2023-06-01T13:33:37.561Z,96381.13
2023-06-01T13:36:04.796Z,96372.69
2023-06-01T13:38:32.256Z,96375.00
2023-06-01T13:40:58.676Z,96374.72
2023-06-01T13:43:25.237Z,96375.13
2023-06-01T13:45:51.853Z,96365.50
2023-06-01T13:48:20.601Z,96365.81
2023-06-01T13:50:47.431Z,96366.59
2023-06-01T13:53:13.872Z,96363.88
2023-06-01T13:55:40.668Z,96352.72
2023-06-01T13:58:07.193Z,96350.84
2023-06-01T14:00:34.066Z,96346.97
2023-06-01T14:03:00.664Z,96344.41
2023-06-01T14:05:36.032Z,96342.44
2023-06-01T14:08:11.412Z,96341.00
2023-06-01T14:10:37.862Z,96334.31
2023-06-01T14:13:04.299Z,96333.78
2023-06-01T14:15:31.646Z,96334.63
2023-06-01T14:17:58.228Z,96324.16
2023-06-01T14:20:24.815Z,96324.19
2023-06-01T14:22:51.641Z,96323.81
2023-06-01T14:25:18.283Z,96321.47
2023-06-01T14:27:44.674Z,96314.09
2023-06-01T14:30:11.691Z,96310.97
2023-06-01T14:32:38.228Z,96302.47
2023-06-01T14:35:04.943Z,96303.16
2023-06-01T14:37:45.282Z,96306.19
2023-06-01T14:40:15.269Z,96299.59
2023-06-01T14:42:41.643Z,96295.34
2023-06-01T14:45:08.793Z,96296.47
2023-06-01T14:47:35.376Z,96293.06
2023-06-01T14:50:01.792Z,96294.63
2023-06-01T14:52:28.263Z,96292.31
2023-06-01T14:54:54.672Z,96297.31
2023-06-01T14:57:21.834Z,96297.72
2023-06-01T15:00:02.650Z,96292.34
2023-06-01T15:02:30.903Z,96297.81
2023-06-01T15:04:57.341Z,96292.47
2023-06-01T15:07:23.899Z,96291.00
2023-06-01T15:09:50.510Z,96291.69
2023-06-01T15:12:16.922Z,96282.47
2023-06-01T15:14:43.855Z,96284.78
2023-06-01T15:17:10.838Z,96280.19
2023-06-01T15:19:37.442Z,96282.50
2023-06-01T15:22:04.409Z,96277.88
2023-06-01T15:24:31.030Z,96276.66
2023-06-01T15:26:57.568Z,96273.88
2023-06-01T15:29:23.964Z,96272.31
2023-06-01T15:31:50.435Z,96262.66
2023-06-01T15:34:16.971Z,96270.69
2023-06-01T15:36:43.462Z,96269.84
2023-06-01T15:39:11.344Z,96269.06
2023-06-01T15:41:37.855Z,96265.94
2023-06-01T15:44:04.271Z,96250.06
2023-06-01T15:46:30.733Z,96250.47
2023-06-01T15:48:57.179Z,96245.84
2023-06-01T15:51:25.065Z,96238.16
2023-06-01T15:53:51.835Z,96237.78
2023-06-01T15:56:18.291Z,96240.56
2023-06-01T15:58:44.708Z,96242.47
2023-06-01T16:01:18.537Z,96242.72
2023-06-01T16:03:50.587Z,96239.50
2023-06-01T16:06:17.046Z,96244.06
2023-06-01T16:08:43.515Z,96240.06
2023-06-01T16:11:09.960Z,96240.78
2023-06-01T16:13:36.404Z,96238.78
2023-06-01T16:16:02.881Z,96239.91
2023-06-01T16:18:29.355Z,96234.81
2023-06-01T16:20:55.767Z,96229.72
2023-06-01T16:23:22.417Z,96225.03
2023-06-01T16:25:48.879Z,96226.56
2023-06-01T16:28:15.376Z,96226.47
2023-06-01T16:30:41.859Z,96219.50
2023-06-01T16:33:09.206Z,96217.94
2023-06-01T16:35:35.681Z,96216.03
2023-06-01T16:38:02.080Z,96215.59
2023-06-01T16:40:28.640Z,96214.03
2023-06-01T16:42:55.104Z,96215.53
2023-06-01T16:45:21.491Z,96225.50
2023-06-01T16:47:48.049Z,96223.03
2023-06-01T16:50:14.476Z,96226.81
2023-06-01T16:52:40.961Z,96232.22
2023-06-01T16:55:07.733Z,96224.84
2023-06-01T16:57:34.809Z,96230.56
2023-06-01T17:00:01.352Z,96230.56
2023-06-01T17:02:28.689Z,96230.56
2023-06-01T17:04:55.381Z,96236.38
2023-06-01T17:07:21.753Z,96226.66
2023-06-01T17:09:48.373Z,96225.09
2023-06-01T17:12:18.443Z,96227.31
2023-06-01T17:14:45.864Z,96227.19
2023-06-01T17:17:14.236Z,96228.31
2023-06-01T17:19:41.270Z,96234.69
2023-06-01T17:22:08.196Z,96237.00
2023-06-01T17:24:35.434Z,96236.94
2023-06-01T17:27:02.073Z,96225.34
2023-06-01T17:29:28.853Z,96233.84
2023-06-01T17:31:55.805Z,96233.03
2023-06-01T17:34:22.174Z,96230.72
2023-06-01T17:36:48.571Z,96231.00
2023-06-01T17:39:15.248Z,96235.25
2023-06-01T17:41:43.851Z,96234.00
2023-06-01T17:44:11.289Z,96234.31
2023-06-01T17:46:37.695Z,96242.72
2023-06-01T17:49:04.330Z,96244.88
2023-06-01T17:51:31.333Z,96248.56
2023-06-01T17:53:57.758Z,96249.28
2023-06-01T17:56:24.406Z,96253.75
2023-06-01T17:58:50.851Z,96246.66
2023-06-01T18:01:17.273Z,96239.63
2023-06-01T18:03:43.696Z,96252.63
2023-06-01T18:06:10.148Z,96252.56
2023-06-01T18:08:36.593Z,96259.03
2023-06-01T18:11:07.425Z,96262.38
2023-06-01T18:13:34.139Z,96263.91
2023-06-01T18:16:00.681Z,96263.84
2023-06-01T18:18:27.390Z,96262.06
2023-06-01T18:20:53.810Z,96263.50
2023-06-01T18:23:20.515Z,96274.28
2023-06-01T18:25:46.949Z,96271.69
2023-06-01T18:28:13.368Z,96290.44
2023-06-01T18:30:40.011Z,96286.53
2023-06-01T18:33:06.647Z,96288.47
2023-06-01T18:35:33.037Z,96295.06
2023-06-01T18:37:59.445Z,96291.16
2023-06-01T18:40:25.975Z,96287.31
2023-06-01T18:42:52.604Z,96292.72
2023-06-01T18:45:18.973Z,96293.91
2023-06-01T18:47:45.468Z,96293.75
2023-06-01T18:50:11.952Z,96295.16
2023-06-01T18:52:38.355Z,96287.38
2023-06-01T18:55:06.403Z,96285.03
2023-06-01T18:57:32.956Z,96290.34
2023-06-01T19:00:04.427Z,96291.47
2023-06-01T19:02:30.843Z,96289.66
2023-06-01T19:05:04.025Z,96297.28
2023-06-01T19:07:39.324Z,96304.16
2023-06-01T19:10:11.247Z,96293.31
2023-06-01T19:12:37.950Z,96300.53
2023-06-01T19:15:13.527Z,96303.25
2023-06-01T19:17:40.827Z,96309.66
2023-06-01T19:20:31.035Z,96311.31
2023-06-01T19:22:57.472Z,96310.63
2023-06-01T19:25:23.885Z,96317.63
2023-06-01T19:27:50.986Z,96326.78
2023-06-01T19:30:18.341Z,96328.59
2023-06-01T19:32:45.410Z,96325.13
2023-06-01T19:35:16.787Z,96317.34
2023-06-01T19:37:47.620Z,96329.13
2023-06-01T19:40:18.059Z,96335.63
2023-06-01T19:42:45.068Z,96332.06
2023-06-01T19:45:17.366Z,96342.56
2023-06-01T19:47:52.876Z,96338.47
2023-06-01T19:50:42.221Z,96344.44
2023-06-01T19:53:08.739Z,96353.94
2023-06-01T19:55:35.778Z,96360.78
2023-06-01T19:58:02.481Z,96366.72
2023-06-01T20:00:32.204Z,96359.91
2023-06-01T20:03:02.174Z,96367.63
2023-06-01T20:05:29.166Z,96361.16
2023-06-01T20:08:01.423Z,96359.50
2023-06-01T20:10:33.391Z,96366.31
2023-06-01T20:13:01.877Z,96377.09
2023-06-01T20:15:33.539Z,96376.88
2023-06-01T20:18:04.509Z,96378.66
2023-06-01T20:20:36.296Z,96376.19
2023-06-01T20:23:07.916Z,96380.34
2023-06-01T20:25:35.590Z,96375.09
2023-06-01T20:28:06.047Z,96374.41
2023-06-01T20:30:32.581Z,96372.97
2023-06-01T20:32:59.069Z,96377.41
2023-06-01T20:35:25.849Z,96373.72
2023-06-01T20:37:55.532Z,96373.88
2023-06-01T20:40:44.505Z,96371.28
2023-06-01T20:43:21.325Z,96386.06
2023-06-01T20:46:02.178Z,96384.47
2023-06-01T20:48:49.740Z,96396.66
2023-06-01T20:51:43.403Z,96395.44
2023-06-01T20:54:12.883Z,96396.88
2023-06-01T20:56:39.441Z,96402.03
2023-06-01T20:59:07.735Z,96396.34
2023-06-01T21:01:38.546Z,96396.91
2023-06-01T21:04:19.947Z,96397.09
2023-06-01T21:06:46.787Z,96392.97
2023-06-01T21:09:14.669Z,96396.00
2023-06-01T21:11:43.839Z,96396.09
2023-06-01T21:14:11.575Z,96396.75
2023-06-01T21:16:38.500Z,96399.66
2023-06-01T21:19:05.478Z,96405.88
2023-06-01T21:21:32.684Z,96402.94
2023-06-01T21:24:00.597Z,96402.06
2023-06-01T21:26:27.155Z,96402.75
2023-06-01T21:28:53.840Z,96404.75
2023-06-01T21:31:20.785Z,96406.66
2023-06-01T21:33:48.187Z,96414.38
2023-06-01T21:36:15.166Z,96415.25
2023-06-01T21:38:41.993Z,96426.63
2023-06-01T21:41:09.416Z,96429.66
2023-06-01T21:43:36.662Z,96422.16
2023-06-01T21:46:04.355Z,96434.00
2023-06-01T21:48:32.368Z,96438.28
2023-06-01T21:50:59.268Z,96439.72
2023-06-01T21:53:26.706Z,96440.69
2023-06-01T21:55:53.925Z,96441.88
2023-06-01T21:58:24.983Z,96442.91
2023-06-01T22:00:51.950Z,96438.22
2023-06-01T22:03:20.343Z,96440.69
2023-06-01T22:05:48.358Z,96435.44
2023-06-01T22:08:15.042Z,96433.09
2023-06-01T22:10:41.841Z,96432.31
2023-06-01T22:13:08.655Z,96429.81
2023-06-01T22:15:35.694Z,96433.75
2023-06-01T22:18:02.496Z,96435.28
2023-06-01T22:20:31.940Z,96429.34
2023-06-01T22:22:58.497Z,96433.78
2023-06-01T22:25:25.101Z,96426.72
2023-06-01T22:27:51.703Z,96431.19
2023-06-01T22:30:18.240Z,96434.19
2023-06-01T22:32:44.728Z,96420.19
2023-06-01T22:35:11.496Z,96428.00
2023-06-01T22:37:38.133Z,96422.97
2023-06-01T22:40:08.440Z,96422.75
2023-06-01T22:42:35.322Z,96421.72
2023-06-01T22:45:02.516Z,96417.38
2023-06-01T22:47:29.135Z,96420.47
2023-06-01T22:49:57.791Z,96418.25
2023-06-01T22:52:28.470Z,96420.47
2023-06-01T22:54:56.213Z,96429.75
2023-06-01T22:57:23.291Z,96421.44
2023-06-01T22:59:50.177Z,96422.31
2023-06-01T23:02:18.220Z,96416.13
2023-06-01T23:04:46.011Z,96421.72
2023-06-01T23:07:13.808Z,96419.28
2023-06-01T23:09:40.754Z,96419.16
2023-06-01T23:12:08.114Z,96420.72
2023-06-01T23:14:38.271Z,96417.66
2023-06-01T23:17:05.517Z,96409.41
2023-06-01T23:19:33.889Z,96409.38
2023-06-01T23:22:04.026Z,96405.09
2023-06-01T23:24:32.438Z,96407.59
2023-06-01T23:27:00.590Z,96400.00
2023-06-01T23:29:27.870Z,96401.38
2023-06-01T23:31:55.276Z,96402.69
2023-06-01T23:34:22.219Z,96391.69
2023-06-01T23:36:53.696Z,96388.69
2023-06-01T23:39:22.028Z,96389.19
2023-06-01T23:41:49.776Z,96384.75
2023-06-01T23:44:17.678Z,96379.84
2023-06-01T23:46:46.013Z,96379.25
2023-06-01T23:49:13.389Z,96373.47
2023-06-01T23:51:40.050Z,96372.94
2023-06-01T23:54:07.106Z,96374.03
2023-06-01T23:56:34.149Z,96365.53
2023-06-01T23:59:00.929Z,96354.50
